sensor_id;sensor_type;location;lat;lon;timestamp;temperature;humidity
14873;DHT22;7528;48.576;19.122;2023-04-15T00:04:28;11.10;76.90
14873;DHT22;7528;48.576;19.122;2023-04-15T00:09:33;11.10;76.70
14873;DHT22;7528;48.576;19.122;2023-04-15T00:14:35;11.00;76.60
14873;DHT22;7528;48.576;19.122;2023-04-15T00:19:37;11.00;77.10
14873;DHT22;7528;48.576;19.122;2023-04-15T00:24:42;11.10;76.70
14873;DHT22;7528;48.576;19.122;2023-04-15T00:29:44;11.10;77.20
14873;DHT22;7528;48.576;19.122;2023-04-15T00:34:47;11.00;77.10
14873;DHT22;7528;48.576;19.122;2023-04-15T00:39:51;11.00;76.70
14873;DHT22;7528;48.576;19.122;2023-04-15T00:44:54;11.10;77.60
14873;DHT22;7528;48.576;19.122;2023-04-15T00:49:57;11.10;77.50
14873;DHT22;7528;48.576;19.122;2023-04-15T00:55:01;11.10;76.90
14873;DHT22;7528;48.576;19.122;2023-04-15T01:00:06;11.10;77.10
14873;DHT22;7528;48.576;19.122;2023-04-15T01:05:10;11.00;76.10
14873;DHT22;7528;48.576;19.122;2023-04-15T01:10:15;10.90;75.40
14873;DHT22;7528;48.576;19.122;2023-04-15T01:15:19;10.90;75.60
14873;DHT22;7528;48.576;19.122;2023-04-15T01:20:22;10.80;76.00
14873;DHT22;7528;48.576;19.122;2023-04-15T01:25:30;10.80;76.40
14873;DHT22;7528;48.576;19.122;2023-04-15T01:30:33;10.80;76.30
14873;DHT22;7528;48.576;19.122;2023-04-15T01:35:36;10.80;75.90
14873;DHT22;7528;48.576;19.122;2023-04-15T01:40:40;10.70;75.50
14873;DHT22;7528;48.576;19.122;2023-04-15T01:45:42;10.80;75.30
14873;DHT22;7528;48.576;19.122;2023-04-15T01:50:45;10.70;75.20
14873;DHT22;7528;48.576;19.122;2023-04-15T01:55:50;10.70;75.20
14873;DHT22;7528;48.576;19.122;2023-04-15T02:00:53;10.70;75.40
14873;DHT22;7528;48.576;19.122;2023-04-15T02:05:55;10.60;75.70
14873;DHT22;7528;48.576;19.122;2023-04-15T02:11:00;10.60;75.60
14873;DHT22;7528;48.576;19.122;2023-04-15T02:16:03;10.70;76.00
14873;DHT22;7528;48.576;19.122;2023-04-15T02:21:06;10.70;75.90
14873;DHT22;7528;48.576;19.122;2023-04-15T02:26:12;10.70;75.50
14873;DHT22;7528;48.576;19.122;2023-04-15T02:31:15;10.60;75.30
14873;DHT22;7528;48.576;19.122;2023-04-15T02:36:18;10.60;75.50
14873;DHT22;7528;48.576;19.122;2023-04-15T02:41:23;10.60;76.00
14873;DHT22;7528;48.576;19.122;2023-04-15T02:46:27;10.60;76.20
14873;DHT22;7528;48.576;19.122;2023-04-15T02:51:30;10.50;76.70
14873;DHT22;7528;48.576;19.122;2023-04-15T02:56:35;10.50;76.90
14873;DHT22;7528;48.576;19.122;2023-04-15T03:01:37;10.50;77.10
14873;DHT22;7528;48.576;19.122;2023-04-15T03:06:40;10.50;76.90
14873;DHT22;7528;48.576;19.122;2023-04-15T03:11:45;10.50;77.20
14873;DHT22;7528;48.576;19.122;2023-04-15T03:16:48;10.60;77.40
14873;DHT22;7528;48.576;19.122;2023-04-15T03:21:52;10.60;77.20
14873;DHT22;7528;48.576;19.122;2023-04-15T03:26:57;10.50;77.20
14873;DHT22;7528;48.576;19.122;2023-04-15T03:32:00;10.50;77.40
14873;DHT22;7528;48.576;19.122;2023-04-15T03:37:06;10.50;76.90
14873;DHT22;7528;48.576;19.122;2023-04-15T03:42:10;10.40;76.90
14873;DHT22;7528;48.576;19.122;2023-04-15T03:47:13;10.40;77.40
14873;DHT22;7528;48.576;19.122;2023-04-15T03:52:16;10.40;77.90
14873;DHT22;7528;48.576;19.122;2023-04-15T03:57:20;10.30;78.40
14873;DHT22;7528;48.576;19.122;2023-04-15T04:02:22;10.40;78.30
14873;DHT22;7528;48.576;19.122;2023-04-15T04:07:25;10.40;78.20
14873;DHT22;7528;48.576;19.122;2023-04-15T04:12:29;10.40;78.30
14873;DHT22;7528;48.576;19.122;2023-04-15T04:17:32;10.40;77.70
14873;DHT22;7528;48.576;19.122;2023-04-15T04:22:37;10.50;78.50
14873;DHT22;7528;48.576;19.122;2023-04-15T04:27:41;10.50;78.60
14873;DHT22;7528;48.576;19.122;2023-04-15T04:32:45;10.50;79.20
14873;DHT22;7528;48.576;19.122;2023-04-15T04:37:47;10.50;79.80
14873;DHT22;7528;48.576;19.122;2023-04-15T04:42:52;10.60;80.20
14873;DHT22;7528;48.576;19.122;2023-04-15T04:47:54;10.50;80.10
14873;DHT22;7528;48.576;19.122;2023-04-15T04:52:57;10.50;79.10
14873;DHT22;7528;48.576;19.122;2023-04-15T04:58:01;10.50;79.30
14873;DHT22;7528;48.576;19.122;2023-04-15T05:03:03;10.50;78.50
14873;DHT22;7528;48.576;19.122;2023-04-15T05:08:07;10.50;79.50
14873;DHT22;7528;48.576;19.122;2023-04-15T05:13:11;10.50;80.10
14873;DHT22;7528;48.576;19.122;2023-04-15T05:18:13;10.60;80.70
14873;DHT22;7528;48.576;19.122;2023-04-15T05:23:16;10.60;80.90
14873;DHT22;7528;48.576;19.122;2023-04-15T05:28:20;10.70;81.70
14873;DHT22;7528;48.576;19.122;2023-04-15T05:33:23;10.70;80.70
14873;DHT22;7528;48.576;19.122;2023-04-15T05:38:25;10.70;81.70
14873;DHT22;7528;48.576;19.122;2023-04-15T05:43:29;10.70;81.40
14873;DHT22;7528;48.576;19.122;2023-04-15T05:48:32;10.80;82.50
14873;DHT22;7528;48.576;19.122;2023-04-15T05:53:35;10.90;83.40
14873;DHT22;7528;48.576;19.122;2023-04-15T05:58:40;10.90;83.40
14873;DHT22;7528;48.576;19.122;2023-04-15T06:03:42;11.00;83.80
14873;DHT22;7528;48.576;19.122;2023-04-15T06:08:44;11.00;81.30
14873;DHT22;7528;48.576;19.122;2023-04-15T06:13:48;11.10;80.80
14873;DHT22;7528;48.576;19.122;2023-04-15T06:18:51;11.30;80.40
14873;DHT22;7528;48.576;19.122;2023-04-15T06:23:54;11.40;79.20
14873;DHT22;7528;48.576;19.122;2023-04-15T06:28:58;11.50;78.60
14873;DHT22;7528;48.576;19.122;2023-04-15T06:34:00;11.70;77.10
14873;DHT22;7528;48.576;19.122;2023-04-15T06:39:03;11.90;77.20
14873;DHT22;7528;48.576;19.122;2023-04-15T06:44:07;12.20;76.60
14873;DHT22;7528;48.576;19.122;2023-04-15T06:49:10;12.40;74.80
14873;DHT22;7528;48.576;19.122;2023-04-15T06:54:12;12.70;73.70
14873;DHT22;7528;48.576;19.122;2023-04-15T06:59:16;12.90;73.80
14873;DHT22;7528;48.576;19.122;2023-04-15T07:04:19;12.90;71.70
14873;DHT22;7528;48.576;19.122;2023-04-15T07:09:22;13.00;71.50
14873;DHT22;7528;48.576;19.122;2023-04-15T07:14:27;13.10;71.00
14873;DHT22;7528;48.576;19.122;2023-04-15T07:19:29;13.20;69.60
14873;DHT22;7528;48.576;19.122;2023-04-15T07:24:32;13.30;69.40
14873;DHT22;7528;48.576;19.122;2023-04-15T07:29:36;13.40;70.40
14873;DHT22;7528;48.576;19.122;2023-04-15T07:34:39;13.80;70.00
14873;DHT22;7528;48.576;19.122;2023-04-15T07:39:43;14.20;67.60
14873;DHT22;7528;48.576;19.122;2023-04-15T07:44:47;14.30;67.00
14873;DHT22;7528;48.576;19.122;2023-04-15T07:49:49;14.20;65.60
14873;DHT22;7528;48.576;19.122;2023-04-15T07:54:52;14.20;64.50
14873;DHT22;7528;48.576;19.122;2023-04-15T07:59:57;14.20;63.20
14873;DHT22;7528;48.576;19.122;2023-04-15T08:04:59;14.20;63.60
14873;DHT22;7528;48.576;19.122;2023-04-15T08:10:05;14.10;65.40
14873;DHT22;7528;48.576;19.122;2023-04-15T08:15:10;14.60;66.00
14873;DHT22;7528;48.576;19.122;2023-04-15T08:20:13;15.10;65.60
14873;DHT22;7528;48.576;19.122;2023-04-15T08:25:15;15.40;60.80
14873;DHT22;7528;48.576;19.122;2023-04-15T08:30:20;15.50;57.70
14873;DHT22;7528;48.576;19.122;2023-04-15T08:35:23;15.60;55.70
14873;DHT22;7528;48.576;19.122;2023-04-15T08:40:33;15.50;53.50
14873;DHT22;7528;48.576;19.122;2023-04-15T08:45:39;15.60;54.20
14873;DHT22;7528;48.576;19.122;2023-04-15T08:50:42;15.60;53.00
14873;DHT22;7528;48.576;19.122;2023-04-15T08:55:46;15.60;55.00
14873;DHT22;7528;48.576;19.122;2023-04-15T09:00:55;15.60;56.50
14873;DHT22;7528;48.576;19.122;2023-04-15T09:05:58;15.30;55.60
14873;DHT22;7528;48.576;19.122;2023-04-15T09:11:01;15.30;55.70
14873;DHT22;7528;48.576;19.122;2023-04-15T09:16:06;15.10;57.00
14873;DHT22;7528;48.576;19.122;2023-04-15T09:21:10;15.00;57.60
14873;DHT22;7528;48.576;19.122;2023-04-15T09:26:15;14.80;55.00
14873;DHT22;7528;48.576;19.122;2023-04-15T09:31:28;14.60;55.80
14873;DHT22;7528;48.576;19.122;2023-04-15T09:36:39;14.60;60.30
14873;DHT22;7528;48.576;19.122;2023-04-15T09:42:05;14.50;59.10
14873;DHT22;7528;48.576;19.122;2023-04-15T09:47:26;14.30;61.20
14873;DHT22;7528;48.576;19.122;2023-04-15T09:52:29;14.20;63.30
14873;DHT22;7528;48.576;19.122;2023-04-15T09:57:33;13.90;64.10
14873;DHT22;7528;48.576;19.122;2023-04-15T10:02:39;13.70;64.10
14873;DHT22;7528;48.576;19.122;2023-04-15T10:07:42;13.80;65.00
14873;DHT22;7528;48.576;19.122;2023-04-15T10:12:45;14.00;63.30
14873;DHT22;7528;48.576;19.122;2023-04-15T10:17:50;14.30;62.60
14873;DHT22;7528;48.576;19.122;2023-04-15T10:22:55;15.00;65.90
14873;DHT22;7528;48.576;19.122;2023-04-15T10:27:59;15.60;67.70
14873;DHT22;7528;48.576;19.122;2023-04-15T10:33:04;16.20;66.70
14873;DHT22;7528;48.576;19.122;2023-04-15T10:38:32;16.90;62.10
14873;DHT22;7528;48.576;19.122;2023-04-15T10:43:36;17.00;60.30
14873;DHT22;7528;48.576;19.122;2023-04-15T10:48:46;16.90;58.00
14873;DHT22;7528;48.576;19.122;2023-04-15T10:53:49;16.70;58.00
14873;DHT22;7528;48.576;19.122;2023-04-15T10:58:52;16.40;57.70
14873;DHT22;7528;48.576;19.122;2023-04-15T11:03:56;16.20;57.80
14873;DHT22;7528;48.576;19.122;2023-04-15T11:08:59;16.20;58.80
14873;DHT22;7528;48.576;19.122;2023-04-15T11:14:13;16.40;59.10
14873;DHT22;7528;48.576;19.122;2023-04-15T11:19:18;16.70;60.30
14873;DHT22;7528;48.576;19.122;2023-04-15T11:24:23;16.80;58.80
14873;DHT22;7528;48.576;19.122;2023-04-15T11:29:28;16.70;57.80
14873;DHT22;7528;48.576;19.122;2023-04-15T11:34:34;16.60;58.20
14873;DHT22;7528;48.576;19.122;2023-04-15T11:39:37;16.40;57.60
14873;DHT22;7528;48.576;19.122;2023-04-15T11:44:39;16.40;58.50
14873;DHT22;7528;48.576;19.122;2023-04-15T11:49:43;16.60;58.40
14873;DHT22;7528;48.576;19.122;2023-04-15T11:54:46;16.70;57.90
14873;DHT22;7528;48.576;19.122;2023-04-15T11:59:49;16.50;56.90
14873;DHT22;7528;48.576;19.122;2023-04-15T12:05:02;16.30;57.70
14873;DHT22;7528;48.576;19.122;2023-04-15T12:10:05;16.20;58.20
14873;DHT22;7528;48.576;19.122;2023-04-15T12:15:09;16.20;58.60
14873;DHT22;7528;48.576;19.122;2023-04-15T12:20:13;16.00;58.20
14873;DHT22;7528;48.576;19.122;2023-04-15T12:25:16;15.90;59.30
14873;DHT22;7528;48.576;19.122;2023-04-15T12:30:19;15.70;58.80
14873;DHT22;7528;48.576;19.122;2023-04-15T12:35:23;15.60;60.00
14873;DHT22;7528;48.576;19.122;2023-04-15T12:40:26;15.60;60.60
14873;DHT22;7528;48.576;19.122;2023-04-15T12:45:29;15.70;62.00
14873;DHT22;7528;48.576;19.122;2023-04-15T12:50:33;15.90;60.70
14873;DHT22;7528;48.576;19.122;2023-04-15T12:55:36;16.20;59.70
14873;DHT22;7528;48.576;19.122;2023-04-15T13:00:38;16.60;59.80
14873;DHT22;7528;48.576;19.122;2023-04-15T13:05:43;16.90;57.90
14873;DHT22;7528;48.576;19.122;2023-04-15T13:10:46;16.80;57.70
14873;DHT22;7528;48.576;19.122;2023-04-15T13:15:49;16.80;57.90
14873;DHT22;7528;48.576;19.122;2023-04-15T13:20:53;16.60;57.70
14873;DHT22;7528;48.576;19.122;2023-04-15T13:25:57;16.40;57.10
14873;DHT22;7528;48.576;19.122;2023-04-15T13:30:59;16.00;56.90
14873;DHT22;7528;48.576;19.122;2023-04-15T13:36:04;15.70;57.70
14873;DHT22;7528;48.576;19.122;2023-04-15T13:41:06;15.50;58.70
14873;DHT22;7528;48.576;19.122;2023-04-15T13:46:12;15.30;60.80
14873;DHT22;7528;48.576;19.122;2023-04-15T13:51:16;15.20;62.30
14873;DHT22;7528;48.576;19.122;2023-04-15T13:56:19;15.10;63.90
14873;DHT22;7528;48.576;19.122;2023-04-15T14:01:22;15.10;65.50
14873;DHT22;7528;48.576;19.122;2023-04-15T14:06:26;15.10;66.50
14873;DHT22;7528;48.576;19.122;2023-04-15T14:11:29;15.20;67.00
14873;DHT22;7528;48.576;19.122;2023-04-15T14:16:33;15.10;58.50
14873;DHT22;7528;48.576;19.122;2023-04-15T14:21:37;15.10;61.10
14873;DHT22;7528;48.576;19.122;2023-04-15T14:26:41;15.10;65.40
14873;DHT22;7528;48.576;19.122;2023-04-15T14:31:45;15.20;66.10
14873;DHT22;7528;48.576;19.122;2023-04-15T14:36:50;15.00;65.30
14873;DHT22;7528;48.576;19.122;2023-04-15T14:41:53;14.80;64.50
14873;DHT22;7528;48.576;19.122;2023-04-15T14:46:56;14.70;64.80
14873;DHT22;7528;48.576;19.122;2023-04-15T14:52:00;14.60;65.30
14873;DHT22;7528;48.576;19.122;2023-04-15T14:57:03;14.50;65.50
14873;DHT22;7528;48.576;19.122;2023-04-15T15:02:07;14.40;65.70
14873;DHT22;7528;48.576;19.122;2023-04-15T15:07:11;14.30;65.40
14873;DHT22;7528;48.576;19.122;2023-04-15T15:12:14;14.20;64.00
14873;DHT22;7528;48.576;19.122;2023-04-15T15:17:16;14.00;65.30
14873;DHT22;7528;48.576;19.122;2023-04-15T15:22:21;14.00;66.20
14873;DHT22;7528;48.576;19.122;2023-04-15T15:27:23;13.90;66.30
14873;DHT22;7528;48.576;19.122;2023-04-15T15:32:26;13.80;67.70
14873;DHT22;7528;48.576;19.122;2023-04-15T15:37:31;13.70;69.30
14873;DHT22;7528;48.576;19.122;2023-04-15T15:42:33;13.70;70.30
14873;DHT22;7528;48.576;19.122;2023-04-15T15:47:36;13.70;70.40
14873;DHT22;7528;48.576;19.122;2023-04-15T15:52:40;13.70;70.60
14873;DHT22;7528;48.576;19.122;2023-04-15T15:57:43;13.70;71.60
14873;DHT22;7528;48.576;19.122;2023-04-15T16:02:46;13.60;71.50
14873;DHT22;7528;48.576;19.122;2023-04-15T16:07:50;13.50;71.60
14873;DHT22;7528;48.576;19.122;2023-04-15T16:12:53;13.40;71.80
14873;DHT22;7528;48.576;19.122;2023-04-15T16:17:56;13.20;72.00
14873;DHT22;7528;48.576;19.122;2023-04-15T16:23:05;13.20;70.90
14873;DHT22;7528;48.576;19.122;2023-04-15T16:28:10;13.30;71.40
14873;DHT22;7528;48.576;19.122;2023-04-15T16:33:13;13.30;72.80
14873;DHT22;7528;48.576;19.122;2023-04-15T16:38:17;13.30;73.10
14873;DHT22;7528;48.576;19.122;2023-04-15T16:43:20;13.30;73.70
14873;DHT22;7528;48.576;19.122;2023-04-15T16:48:22;13.20;73.90
14873;DHT22;7528;48.576;19.122;2023-04-15T16:53:27;13.10;75.00
14873;DHT22;7528;48.576;19.122;2023-04-15T16:58:29;13.00;75.20
14873;DHT22;7528;48.576;19.122;2023-04-15T17:03:32;12.90;75.70
14873;DHT22;7528;48.576;19.122;2023-04-15T17:08:36;12.80;75.60
14873;DHT22;7528;48.576;19.122;2023-04-15T17:13:40;12.80;75.90
14873;DHT22;7528;48.576;19.122;2023-04-15T17:18:42;12.90;76.10
14873;DHT22;7528;48.576;19.122;2023-04-15T17:23:50;12.90;75.70
14873;DHT22;7528;48.576;19.122;2023-04-15T17:28:53;12.80;75.40
14873;DHT22;7528;48.576;19.122;2023-04-15T17:33:56;12.80;75.90
14873;DHT22;7528;48.576;19.122;2023-04-15T17:39:00;12.80;76.30
14873;DHT22;7528;48.576;19.122;2023-04-15T17:44:03;12.70;76.90
14873;DHT22;7528;48.576;19.122;2023-04-15T17:49:06;12.80;77.30
14873;DHT22;7528;48.576;19.122;2023-04-15T17:54:10;12.80;77.20
14873;DHT22;7528;48.576;19.122;2023-04-15T17:59:12;12.70;77.50
14873;DHT22;7528;48.576;19.122;2023-04-15T18:04:15;12.70;77.00
14873;DHT22;7528;48.576;19.122;2023-04-15T18:09:18;12.70;77.90
14873;DHT22;7528;48.576;19.122;2023-04-15T18:14:21;12.60;78.50
14873;DHT22;7528;48.576;19.122;2023-04-15T18:19:24;12.60;78.80
14873;DHT22;7528;48.576;19.122;2023-04-15T18:24:28;12.60;78.80
14873;DHT22;7528;48.576;19.122;2023-04-15T18:29:31;12.60;78.60
14873;DHT22;7528;48.576;19.122;2023-04-15T18:34:33;12.60;78.90
14873;DHT22;7528;48.576;19.122;2023-04-15T18:39:37;12.60;79.20
14873;DHT22;7528;48.576;19.122;2023-04-15T18:44:40;12.60;79.30
14873;DHT22;7528;48.576;19.122;2023-04-15T18:49:42;12.50;80.10
14873;DHT22;7528;48.576;19.122;2023-04-15T18:54:46;12.60;79.50
14873;DHT22;7528;48.576;19.122;2023-04-15T18:59:49;12.50;79.50
14873;DHT22;7528;48.576;19.122;2023-04-15T19:04:52;12.40;80.00
14873;DHT22;7528;48.576;19.122;2023-04-15T19:09:56;12.40;80.50
14873;DHT22;7528;48.576;19.122;2023-04-15T19:14:58;12.40;80.80
14873;DHT22;7528;48.576;19.122;2023-04-15T19:20:01;12.40;80.60
14873;DHT22;7528;48.576;19.122;2023-04-15T19:25:06;12.40;80.80
14873;DHT22;7528;48.576;19.122;2023-04-15T19:30:09;12.30;80.70
14873;DHT22;7528;48.576;19.122;2023-04-15T19:35:12;12.20;80.50
14873;DHT22;7528;48.576;19.122;2023-04-15T19:40:16;12.20;80.60
14873;DHT22;7528;48.576;19.122;2023-04-15T19:45:19;12.20;80.90
14873;DHT22;7528;48.576;19.122;2023-04-15T19:50:21;12.10;81.00
14873;DHT22;7528;48.576;19.122;2023-04-15T19:55:27;12.10;80.40
14873;DHT22;7528;48.576;19.122;2023-04-15T20:00:30;12.10;80.70
14873;DHT22;7528;48.576;19.122;2023-04-15T20:05:33;12.10;80.70
14873;DHT22;7528;48.576;19.122;2023-04-15T20:10:37;12.10;80.90
14873;DHT22;7528;48.576;19.122;2023-04-15T20:15:39;12.10;80.30
14873;DHT22;7528;48.576;19.122;2023-04-15T20:20:42;12.10;81.50
14873;DHT22;7528;48.576;19.122;2023-04-15T20:25:46;12.00;82.00
14873;DHT22;7528;48.576;19.122;2023-04-15T20:30:49;12.00;81.90
14873;DHT22;7528;48.576;19.122;2023-04-15T20:35:53;12.00;82.30
14873;DHT22;7528;48.576;19.122;2023-04-15T20:40:58;12.10;82.10
14873;DHT22;7528;48.576;19.122;2023-04-15T20:46:00;12.00;82.40
14873;DHT22;7528;48.576;19.122;2023-04-15T20:51:03;12.00;82.50
14873;DHT22;7528;48.576;19.122;2023-04-15T20:56:07;12.00;82.50
14873;DHT22;7528;48.576;19.122;2023-04-15T21:01:10;12.00;82.40
14873;DHT22;7528;48.576;19.122;2023-04-15T21:06:13;12.00;82.70
14873;DHT22;7528;48.576;19.122;2023-04-15T21:11:17;12.00;82.70
14873;DHT22;7528;48.576;19.122;2023-04-15T21:16:20;11.90;82.90
14873;DHT22;7528;48.576;19.122;2023-04-15T21:21:23;12.00;83.00
14873;DHT22;7528;48.576;19.122;2023-04-15T21:26:28;12.00;83.00
14873;DHT22;7528;48.576;19.122;2023-04-15T21:31:31;12.00;83.30
14873;DHT22;7528;48.576;19.122;2023-04-15T21:36:34;12.00;83.50
14873;DHT22;7528;48.576;19.122;2023-04-15T21:41:38;12.00;83.30
14873;DHT22;7528;48.576;19.122;2023-04-15T21:46:40;12.00;83.50
14873;DHT22;7528;48.576;19.122;2023-04-15T21:51:43;12.00;83.30
14873;DHT22;7528;48.576;19.122;2023-04-15T21:56:48;12.00;83.50
14873;DHT22;7528;48.576;19.122;2023-04-15T22:01:51;12.00;83.50
14873;DHT22;7528;48.576;19.122;2023-04-15T22:06:53;11.90;83.50
14873;DHT22;7528;48.576;19.122;2023-04-15T22:12:04;12.00;83.40
14873;DHT22;7528;48.576;19.122;2023-04-15T22:17:07;12.00;83.70
14873;DHT22;7528;48.576;19.122;2023-04-15T22:22:09;11.90;83.40
14873;DHT22;7528;48.576;19.122;2023-04-15T22:27:13;11.90;83.70
14873;DHT22;7528;48.576;19.122;2023-04-15T22:32:16;11.90;83.70
14873;DHT22;7528;48.576;19.122;2023-04-15T22:37:18;11.90;83.80
14873;DHT22;7528;48.576;19.122;2023-04-15T22:42:23;11.90;83.80
14873;DHT22;7528;48.576;19.122;2023-04-15T22:47:26;11.90;83.60
14873;DHT22;7528;48.576;19.122;2023-04-15T22:52:29;11.90;83.60
14873;DHT22;7528;48.576;19.122;2023-04-15T22:57:33;11.90;83.80
14873;DHT22;7528;48.576;19.122;2023-04-15T23:02:35;11.80;83.80
14873;DHT22;7528;48.576;19.122;2023-04-15T23:07:38;11.80;83.60
14873;DHT22;7528;48.576;19.122;2023-04-15T23:12:42;11.80;83.70
14873;DHT22;7528;48.576;19.122;2023-04-15T23:17:44;11.80;83.80
14873;DHT22;7528;48.576;19.122;2023-04-15T23:22:47;11.80;83.90
14873;DHT22;7528;48.576;19.122;2023-04-15T23:27:51;11.80;83.90
14873;DHT22;7528;48.576;19.122;2023-04-15T23:32:53;11.70;84.30
14873;DHT22;7528;48.576;19.122;2023-04-15T23:37:57;11.70;84.30
14873;DHT22;7528;48.576;19.122;2023-04-15T23:43:02;11.70;84.80
14873;DHT22;7528;48.576;19.122;2023-04-15T23:48:05;11.70;83.80
14873;DHT22;7528;48.576;19.122;2023-04-15T23:53:08;11.70;83.20
14873;DHT22;7528;48.576;19.122;2023-04-15T23:58:12;11.60;83.20
